Time;durP1;ratioP1;P1;durP2;ratioP2;P2;SDS_P1;SDS_P2;PMS_P1;PMS_P2;Temp;Humidity;BMP_temperature;BMP_pressure;BME280_temperature;BME280_humidity;BME280_pressure;Samples;Min_cycle;Max_cycle;Signal;HPM_P1;HPM_P2
2023/02/09 00:02:00;;;;;;;74.40;49.93;;;3.40;99.90;;;;;;4935080;28;20421;-84
2023/02/09 00:04:26;;;;;;;77.03;49.17;;;3.30;99.90;;;;;;4952416;28;20035;-84
2023/02/09 00:06:52;;;;;;;83.80;50.10;;;3.30;99.90;;;;;;4935671;29;20385;-84
2023/02/09 00:09:18;;;;;;;77.73;51.00;;;3.30;99.90;;;;;;4951999;29;20035;-84
2023/02/09 00:14:30;;;;;;;71.47;48.77;;;3.20;99.90;;;;;;4941065;29;20039;-83
2023/02/09 00:16:56;;;;;;;77.03;50.30;;;3.20;99.90;;;;;;4937480;28;20039;-84
2023/02/09 00:19:22;;;;;;;76.97;48.60;;;3.10;99.90;;;;;;4956129;29;20039;-84
2023/02/09 00:21:48;;;;;;;75.93;48.73;;;3.20;99.90;;;;;;4940417;28;20038;-84
2023/02/09 00:24:14;;;;;;;74.33;48.27;;;3.10;99.90;;;;;;4940548;29;20046;-84
2023/02/09 00:26:40;;;;;;;75.10;47.97;;;3.10;99.90;;;;;;4924898;29;20031;-84
2023/02/09 00:29:07;;;;;;;81.37;50.37;;;3.10;99.90;;;;;;4938574;29;20047;-84
2023/02/09 00:31:33;;;;;;;78.30;47.87;;;3.10;99.90;;;;;;4954648;28;20035;-84
2023/02/09 00:34:00;;;;;;;78.70;48.83;;;3.10;99.90;;;;;;4939780;29;20031;-84
2023/02/09 00:36:26;;;;;;;88.87;50.10;;;3.20;99.90;;;;;;4957475;29;20031;-84
2023/02/09 00:38:52;;;;;;;92.33;51.63;;;3.20;99.90;;;;;;4939704;29;20035;-84
2023/02/09 00:42:04;;;;;;;91.17;51.17;;;3.10;99.90;;;;;;4940345;28;20031;-83
2023/02/09 00:44:04;;;;;;;96.67;55.67;;;3.10;99.90;;;;;;4955290;28;20500;-84
2023/02/09 00:46:30;;;;;;;99.20;55.27;;;3.10;99.90;;;;;;4955827;28;20038;-84
2023/02/09 00:48:56;;;;;;;90.20;52.17;;;3.10;99.90;;;;;;4956654;29;20485;-84
2023/02/09 00:51:23;;;;;;;86.37;51.73;;;3.00;99.90;;;;;;4955263;28;20062;-84
2023/02/09 00:53:49;;;;;;;76.87;46.93;;;3.00;99.90;;;;;;4939570;29;20400;-84
2023/02/09 00:56:15;;;;;;;77.00;48.03;;;2.90;99.90;;;;;;4940054;29;20050;-84
2023/02/09 00:58:41;;;;;;;73.93;47.80;;;2.90;99.90;;;;;;4953834;28;20047;-84
2023/02/09 01:01:12;;;;;;;76.17;45.50;;;2.90;99.90;;;;;;4938834;28;20069;-84
2023/02/09 01:03:39;;;;;;;66.82;43.08;;;2.90;99.90;;;;;;4939369;29;20465;-84
2023/02/09 01:06:05;;;;;;;69.80;43.70;;;2.90;99.90;;;;;;4956934;29;20042;-84
2023/02/09 01:08:31;;;;;;;63.53;41.97;;;2.90;99.90;;;;;;4956198;28;20031;-84
2023/02/09 01:10:57;;;;;;;63.17;44.53;;;2.90;99.90;;;;;;4923635;28;20039;-84
2023/02/09 01:13:23;;;;;;;72.43;43.67;;;2.90;99.90;;;;;;4954826;28;20035;-84
2023/02/09 01:15:50;;;;;;;66.20;44.87;;;2.90;99.90;;;;;;4954800;28;20507;-84
2023/02/09 01:18:16;;;;;;;66.30;43.67;;;2.90;99.90;;;;;;4970131;28;20064;-83
2023/02/09 01:20:42;;;;;;;70.40;43.83;;;2.80;99.90;;;;;;4945221;28;20034;-84
2023/02/09 01:23:08;;;;;;;62.00;42.57;;;2.80;99.90;;;;;;4939355;29;20489;-84
2023/02/09 01:25:34;;;;;;;65.77;43.33;;;2.80;99.90;;;;;;4922688;29;20043;-83
2023/02/09 01:28:00;;;;;;;66.13;44.40;;;2.80;99.90;;;;;;4955581;28;20477;-83
2023/02/09 01:30:26;;;;;;;67.17;44.73;;;2.80;99.90;;;;;;4954857;28;20032;-83
2023/02/09 01:32:52;;;;;;;63.47;42.00;;;2.80;99.90;;;;;;4938118;28;20397;-84
2023/02/09 01:35:18;;;;;;;62.47;42.77;;;2.80;99.90;;;;;;4954364;28;20043;-83
2023/02/09 01:37:45;;;;;;;69.40;46.57;;;2.70;99.90;;;;;;4951593;28;20036;-84
2023/02/09 01:40:11;;;;;;;68.30;44.40;;;2.70;99.90;;;;;;4904336;29;20048;-83
2023/02/09 01:42:37;;;;;;;66.53;44.43;;;2.60;99.90;;;;;;4920218;29;20040;-83
2023/02/09 01:45:04;;;;;;;71.13;47.73;;;2.60;99.90;;;;;;4948153;28;20031;-83
2023/02/09 01:47:30;;;;;;;68.57;48.10;;;2.50;99.90;;;;;;4967734;28;20031;-83
2023/02/09 01:49:57;;;;;;;68.13;50.27;;;2.40;99.90;;;;;;4922248;29;20043;-83
2023/02/09 01:52:25;;;;;;;69.83;48.20;;;2.40;99.90;;;;;;4954553;29;20023;-83
2023/02/09 01:54:57;;;;;;;67.63;48.07;;;2.50;99.90;;;;;;4923051;29;20042;-83
2023/02/09 01:57:26;;;;;;;68.70;49.80;;;2.50;99.90;;;;;;4938659;29;20527;-83
2023/02/09 01:59:55;;;;;;;70.53;50.33;;;2.40;99.90;;;;;;4954755;29;20054;-83
2023/02/09 02:02:21;;;;;;;72.37;47.07;;;2.50;99.90;;;;;;4936709;28;20032;-83
2023/02/09 02:04:47;;;;;;;65.27;42.13;;;2.40;99.90;;;;;;4938055;29;20038;-83
2023/02/09 02:07:32;;;;;;;60.07;42.83;;;2.50;99.90;;;;;;4937634;29;20035;-83
2023/02/09 02:09:58;;;;;;;62.60;43.73;;;2.40;99.90;;;;;;4940537;29;20046;-83
2023/02/09 02:12:24;;;;;;;64.47;43.77;;;2.40;99.90;;;;;;4953586;29;20043;-83
2023/02/09 02:14:50;;;;;;;65.67;42.80;;;2.40;99.90;;;;;;4938503;29;20039;-83
2023/02/09 02:17:24;;;;;;;64.53;41.67;;;2.30;99.90;;;;;;4953487;28;20050;-83
2023/02/09 02:20:03;;;;;;;63.43;42.07;;;2.30;99.90;;;;;;4954076;28;20046;-83
2023/02/09 02:22:37;;;;;;;59.80;42.07;;;2.30;99.90;;;;;;4950609;28;20031;-83
2023/02/09 02:25:46;;;;;;;66.80;49.97;;;2.40;99.90;;;;;;4954393;29;20507;-83
2023/02/09 02:28:21;;;;;;;63.70;43.97;;;2.20;99.90;;;;;;4953994;29;20031;-83
2023/02/09 02:31:08;;;;;;;59.87;40.93;;;2.20;99.90;;;;;;4952510;28;20039;-83
2023/02/09 02:33:49;;;;;;;61.67;42.77;;;2.20;99.90;;;;;;4954288;29;20045;-83
2023/02/09 02:36:23;;;;;;;64.90;41.40;;;2.20;99.90;;;;;;4952039;29;20039;-83
2023/02/09 02:38:53;;;;;;;65.47;43.33;;;2.20;99.90;;;;;;4953372;28;20520;-83
2023/02/09 02:44:39;;;;;;;60.77;42.80;;;2.10;99.90;;;;;;4950254;28;20066;-83
2023/02/09 02:47:06;;;;;;;64.50;41.00;;;2.20;99.90;;;;;;4921636;29;20042;-83
2023/02/09 02:49:44;;;;;;;66.37;43.57;;;2.10;99.90;;;;;;4953560;29;20038;-83
2023/02/09 02:52:10;;;;;;;59.03;40.77;;;2.10;99.90;;;;;;4968065;28;20512;-83
2023/02/09 02:54:39;;;;;;;67.60;42.43;;;2.10;99.90;;;;;;4936514;29;20397;-83
2023/02/09 02:57:09;;;;;;;68.00;42.93;;;2.10;99.90;;;;;;4937206;29;20381;-83
2023/02/09 02:59:45;;;;;;;64.50;42.50;;;2.10;99.90;;;;;;4950854;28;20050;-83
2023/02/09 03:02:14;;;;;;;62.17;41.27;;;2.10;99.90;;;;;;4944534;28;20535;-83
2023/02/09 03:04:40;;;;;;;60.77;40.77;;;2.10;99.90;;;;;;4938552;28;20035;-84
2023/02/09 03:07:09;;;;;;;62.03;41.87;;;2.10;99.90;;;;;;4936975;28;20035;-83
2023/02/09 03:09:46;;;;;;;65.15;42.40;;;2.00;99.90;;;;;;4937699;28;20050;-83
2023/02/09 03:12:15;;;;;;;64.07;40.30;;;2.00;99.90;;;;;;4941203;29;20038;-83
2023/02/09 03:14:46;;;;;;;62.37;40.90;;;1.90;99.90;;;;;;4959823;28;20030;-84
2023/02/09 03:17:28;;;;;;;63.63;41.45;;;1.90;99.90;;;;;;4933550;28;20035;-83
2023/02/09 03:20:02;;;;;;;59.43;39.53;;;1.90;99.90;;;;;;4951642;29;20047;-82
2023/02/09 03:22:51;;;;;;;57.77;41.17;;;1.90;99.90;;;;;;4931336;29;20477;-83
2023/02/09 03:25:21;;;;;;;66.33;41.50;;;1.90;99.90;;;;;;4949545;29;20107;-84
2023/02/09 03:28:04;;;;;;;64.68;40.63;;;1.90;99.90;;;;;;4951507;29;20027;-83
2023/02/09 03:30:31;;;;;;;64.73;41.03;;;1.90;99.90;;;;;;4932640;29;20055;-83
2023/02/09 03:32:57;;;;;;;63.17;40.93;;;1.80;99.90;;;;;;4916198;29;20024;-84
2023/02/09 03:35:26;;;;;;;61.97;42.20;;;1.70;99.90;;;;;;4921192;29;20053;-83
2023/02/09 03:37:52;;;;;;;61.13;41.53;;;1.70;99.90;;;;;;4936492;29;20034;-83
2023/02/09 03:40:18;;;;;;;61.43;40.97;;;1.70;99.90;;;;;;4969130;28;20051;-83
2023/02/09 03:42:44;;;;;;;58.07;39.73;;;1.70;99.90;;;;;;4969222;28;20031;-83
2023/02/09 03:45:10;;;;;;;56.17;39.67;;;1.70;99.90;;;;;;4968094;28;20376;-83
2023/02/09 03:47:36;;;;;;;57.37;40.47;;;1.70;99.90;;;;;;4951533;29;20027;-83
2023/02/09 03:50:05;;;;;;;59.37;40.43;;;1.70;99.90;;;;;;4936305;28;20373;-83
2023/02/09 03:52:31;;;;;;;64.43;42.30;;;1.70;99.90;;;;;;4939034;29;20043;-83
2023/02/09 03:54:57;;;;;;;66.60;42.80;;;1.70;99.90;;;;;;4956931;29;20039;-83
2023/02/09 03:57:24;;;;;;;59.70;40.20;;;1.60;99.90;;;;;;4940363;29;20039;-83
2023/02/09 03:59:50;;;;;;;61.07;42.00;;;1.60;99.90;;;;;;4941139;29;20047;-83
2023/02/09 04:02:16;;;;;;;62.17;42.50;;;1.60;99.90;;;;;;4955958;28;20390;-83
2023/02/09 04:04:42;;;;;;;60.17;41.70;;;1.60;99.90;;;;;;4940688;29;20050;-83
2023/02/09 04:07:08;;;;;;;60.20;41.77;;;1.60;99.90;;;;;;4938165;29;20035;-83
2023/02/09 04:09:36;;;;;;;59.50;40.57;;;1.60;99.90;;;;;;4940398;28;20043;-82
2023/02/09 04:12:02;;;;;;;59.57;39.13;;;1.60;99.90;;;;;;4956689;28;20034;-83
2023/02/09 04:14:29;;;;;;;62.57;40.97;;;1.60;99.90;;;;;;4940225;29;20032;-82
2023/02/09 04:16:55;;;;;;;61.77;39.30;;;1.60;99.90;;;;;;4955803;28;20054;-82
2023/02/09 04:19:21;;;;;;;65.20;41.63;;;1.60;99.90;;;;;;4956413;28;20047;-83
2023/02/09 04:21:47;;;;;;;65.73;43.47;;;1.50;99.90;;;;;;4964618;28;20038;-82
2023/02/09 04:24:13;;;;;;;67.37;42.33;;;1.50;99.90;;;;;;4955339;29;20044;-83
2023/02/09 04:26:39;;;;;;;69.43;42.83;;;1.40;99.90;;;;;;4940323;28;20469;-83
2023/02/09 04:29:05;;;;;;;67.27;42.23;;;1.40;99.90;;;;;;4956881;28;20038;-82
2023/02/09 04:31:31;;;;;;;72.30;43.63;;;1.40;99.90;;;;;;4955780;28;20461;-82
2023/02/09 04:33:57;;;;;;;71.23;43.37;;;1.40;99.90;;;;;;4955685;29;20034;-83
2023/02/09 04:36:23;;;;;;;66.33;43.60;;;1.50;99.90;;;;;;4939354;29;20488;-82
2023/02/09 04:38:49;;;;;;;63.10;41.57;;;1.40;99.90;;;;;;4956836;29;20038;-82
2023/02/09 04:41:16;;;;;;;65.00;43.90;;;1.30;99.90;;;;;;4954779;28;20423;-82
2023/02/09 04:43:42;;;;;;;72.13;47.00;;;1.20;99.90;;;;;;4932698;29;20032;-83
2023/02/09 04:46:15;;;;;;;69.43;45.23;;;1.20;99.90;;;;;;4929888;28;20139;-82
2023/02/09 04:48:41;;;;;;;61.90;44.23;;;1.20;99.90;;;;;;4940120;29;20038;-83
2023/02/09 04:51:07;;;;;;;63.93;44.30;;;1.20;99.90;;;;;;4938411;29;20047;-82
2023/02/09 04:53:33;;;;;;;460.20;97.20;;;1.30;99.90;;;;;;4939745;29;20469;-82
2023/02/09 04:56:00;;;;;;;68.60;42.43;;;1.40;99.90;;;;;;4955755;29;20031;-82
2023/02/09 05:01:13;;;;;;;334.80;55.90;;;1.50;99.90;;;;;;4956649;28;20436;-80
2023/02/09 05:03:41;;;;;;;62.87;43.03;;;1.50;99.90;;;;;;4937078;29;20037;-82
2023/02/09 05:06:07;;;;;;;64.67;40.40;;;1.40;99.90;;;;;;4954556;29;20027;-81
2023/02/09 05:08:33;;;;;;;69.47;42.10;;;1.40;99.90;;;;;;4939556;29;20043;-80
2023/02/09 05:10:59;;;;;;;79.80;41.67;;;1.40;99.90;;;;;;4956726;29;20485;-81
2023/02/09 05:13:26;;;;;;;64.73;41.23;;;1.40;99.90;;;;;;4936485;29;20038;-82
2023/02/09 05:15:52;;;;;;;60.43;40.30;;;1.40;99.90;;;;;;4921943;29;20036;-81
2023/02/09 05:18:18;;;;;;;61.53;42.50;;;1.30;99.90;;;;;;4954061;29;20032;-81
2023/02/09 05:20:44;;;;;;;60.93;40.97;;;1.30;99.90;;;;;;4961582;28;20038;-82
2023/02/09 05:23:11;;;;;;;62.10;40.70;;;1.20;99.90;;;;;;4964612;28;20019;-81
2023/02/09 05:25:37;;;;;;;59.33;41.87;;;1.20;99.90;;;;;;4939443;29;20472;-82
2023/02/09 05:28:03;;;;;;;63.97;42.70;;;1.20;99.90;;;;;;4955205;29;20042;-82
2023/02/09 05:30:30;;;;;;;65.37;42.93;;;1.30;99.90;;;;;;4955017;28;20035;-80
2023/02/09 05:32:57;;;;;;;67.50;42.40;;;1.30;99.90;;;;;;4921816;29;20046;-81
2023/02/09 05:35:23;;;;;;;61.60;40.47;;;1.30;99.90;;;;;;4954134;29;20030;-81
2023/02/09 05:37:49;;;;;;;58.43;39.53;;;1.20;99.90;;;;;;4938799;29;20039;-82
2023/02/09 05:40:15;;;;;;;60.93;40.97;;;1.20;99.90;;;;;;4938895;28;20043;-81
2023/02/09 05:42:41;;;;;;;64.43;41.13;;;1.20;99.90;;;;;;4954770;28;20034;-81
2023/02/09 05:45:08;;;;;;;60.03;41.07;;;1.10;99.90;;;;;;4938358;28;20046;-81
2023/02/09 05:47:34;;;;;;;57.53;40.17;;;1.10;99.90;;;;;;4920855;29;20545;-81
2023/02/09 05:50:00;;;;;;;74.10;42.97;;;1.10;99.90;;;;;;4954830;29;20051;-81
2023/02/09 05:52:26;;;;;;;63.53;41.97;;;1.10;99.90;;;;;;4955718;28;20032;-81
2023/02/09 05:54:52;;;;;;;57.60;39.07;;;1.10;99.90;;;;;;4956137;29;20039;-81
2023/02/09 05:57:18;;;;;;;56.77;39.50;;;1.00;99.90;;;;;;4954674;29;20031;-81
2023/02/09 05:59:44;;;;;;;61.33;41.27;;;1.00;99.90;;;;;;4954728;29;20039;-81
2023/02/09 06:02:10;;;;;;;80.50;50.47;;;1.10;99.90;;;;;;4937581;28;20039;-81
2023/02/09 06:04:37;;;;;;;70.33;44.17;;;1.00;99.90;;;;;;4938454;29;20047;-81
2023/02/09 06:07:03;;;;;;;65.10;42.33;;;1.10;99.90;;;;;;4953794;29;20047;-81
2023/02/09 06:09:29;;;;;;;76.67;46.53;;;1.00;99.90;;;;;;4938592;29;20028;-81
2023/02/09 06:11:55;;;;;;;64.13;43.00;;;1.00;99.90;;;;;;4954119;29;20043;-81
2023/02/09 06:14:21;;;;;;;76.70;46.50;;;1.00;99.90;;;;;;4938037;29;20046;-81
2023/02/09 06:16:47;;;;;;;71.80;44.60;;;0.90;99.90;;;;;;4921180;29;20038;-81
2023/02/09 06:19:14;;;;;;;72.97;45.83;;;0.90;99.90;;;;;;4954240;29;20061;-81
2023/02/09 06:21:40;;;;;;;67.63;43.47;;;0.90;99.90;;;;;;4956777;28;20210;-81
2023/02/09 06:24:06;;;;;;;72.27;44.03;;;0.90;99.90;;;;;;4954150;29;20035;-81
2023/02/09 06:26:32;;;;;;;68.93;44.20;;;0.90;99.90;;;;;;4922100;29;20042;-81
2023/02/09 06:28:58;;;;;;;68.93;43.67;;;0.90;99.90;;;;;;4954193;29;20038;-81
2023/02/09 06:31:25;;;;;;;78.20;45.93;;;0.90;99.90;;;;;;4951733;28;20040;-81
2023/02/09 06:33:51;;;;;;;77.53;44.57;;;0.90;99.90;;;;;;4955372;28;20034;-80
2023/02/09 06:36:17;;;;;;;73.53;46.13;;;0.90;99.90;;;;;;4936879;29;20040;-80
2023/02/09 06:38:43;;;;;;;77.27;45.33;;;0.80;99.90;;;;;;4955062;29;20499;-80
2023/02/09 06:41:09;;;;;;;75.00;46.23;;;0.80;99.90;;;;;;4936340;29;20058;-81
2023/02/09 06:43:35;;;;;;;71.30;43.83;;;0.70;99.90;;;;;;4938125;29;20385;-81
2023/02/09 06:46:08;;;;;;;77.00;46.60;;;0.70;99.90;;;;;;4952694;28;20051;-81
2023/02/09 06:48:35;;;;;;;113.13;47.77;;;0.70;99.90;;;;;;4949938;28;20035;-81
2023/02/09 06:51:01;;;;;;;72.93;43.93;;;0.80;99.90;;;;;;4969638;28;20043;-81
2023/02/09 06:53:27;;;;;;;67.03;41.53;;;0.80;99.90;;;;;;4937188;29;20035;-81
2023/02/09 06:55:59;;;;;;;72.13;43.97;;;0.70;99.90;;;;;;4952992;29;20484;-81
2023/02/09 06:58:25;;;;;;;69.23;43.53;;;0.70;99.90;;;;;;4937892;29;20393;-81
2023/02/09 07:00:51;;;;;;;80.43;45.20;;;0.70;99.90;;;;;;4937299;28;20505;-82
2023/02/09 07:03:17;;;;;;;65.97;42.07;;;0.80;99.90;;;;;;4952566;29;20024;-81
2023/02/09 07:05:43;;;;;;;65.80;42.37;;;0.80;99.90;;;;;;4950880;28;20039;-81
2023/02/09 07:08:09;;;;;;;66.50;43.43;;;0.80;99.90;;;;;;4937508;29;20027;-81
2023/02/09 07:10:35;;;;;;;69.80;43.20;;;0.90;99.90;;;;;;4940803;29;20045;-81
2023/02/09 07:13:01;;;;;;;66.03;44.37;;;0.90;99.90;;;;;;4937630;29;20023;-81
2023/02/09 07:15:27;;;;;;;70.93;44.27;;;0.80;99.90;;;;;;4951190;28;20040;-81
2023/02/09 07:17:53;;;;;;;70.23;44.13;;;0.80;99.90;;;;;;4937012;29;20031;-81
2023/02/09 07:20:20;;;;;;;72.03;43.20;;;0.80;99.90;;;;;;4936111;28;20507;-79
2023/02/09 07:22:46;;;;;;;73.93;45.20;;;0.80;99.90;;;;;;4950119;29;20034;-81
2023/02/09 07:25:12;;;;;;;91.40;47.50;;;0.80;99.90;;;;;;4952222;28;20040;-82
2023/02/09 07:27:42;;;;;;;69.50;47.10;;;0.80;99.90;;;;;;4952827;28;20053;-82
2023/02/09 07:30:09;;;;;;;75.83;46.20;;;0.80;99.90;;;;;;4952565;28;20023;-82
2023/02/09 07:32:37;;;;;;;79.47;45.47;;;0.80;99.90;;;;;;4953354;29;20388;-81
2023/02/09 07:35:03;;;;;;;84.03;47.00;;;0.30;99.90;;;;;;4952386;29;20496;-82
2023/02/09 07:37:30;;;;;;;80.43;48.47;;;-0.10;99.90;;;;;;4952741;29;20190;-82
2023/02/09 07:39:56;;;;;;;80.87;48.47;;;-0.30;99.90;;;;;;4953479;29;20388;-81
2023/02/09 07:42:22;;;;;;;74.73;47.27;;;-0.20;99.90;;;;;;4953097;28;20058;-81
2023/02/09 07:44:48;;;;;;;73.33;48.30;;;0.00;99.90;;;;;;4937256;29;20384;-84
2023/02/09 07:47:14;;;;;;;75.73;46.10;;;0.10;99.90;;;;;;4952329;28;20047;-80
2023/02/09 07:49:40;;;;;;;73.80;46.97;;;0.30;99.90;;;;;;4949835;28;20035;-80
2023/02/09 07:52:06;;;;;;;71.27;46.90;;;0.40;99.90;;;;;;4936297;29;20031;-81
2023/02/09 07:54:32;;;;;;;74.23;45.57;;;0.20;99.90;;;;;;4954054;28;20043;-81
2023/02/09 07:56:58;;;;;;;71.40;46.40;;;0.10;99.90;;;;;;4957228;29;20043;-82
2023/02/09 07:59:25;;;;;;;80.90;52.27;;;0.00;99.90;;;;;;4933801;29;20020;-83
2023/02/09 08:01:51;;;;;;;65.73;43.03;;;0.00;99.90;;;;;;4952237;28;20051;-85
2023/02/09 08:04:17;;;;;;;69.97;46.20;;;0.20;99.90;;;;;;4949680;29;20039;-85
2023/02/09 08:06:44;;;;;;;74.40;48.07;;;0.20;99.90;;;;;;4945611;29;20035;-81
2023/02/09 08:09:12;;;;;;;69.30;45.67;;;0.30;99.90;;;;;;4935390;29;20038;-82
2023/02/09 08:11:43;;;;;;;71.83;43.80;;;0.50;99.90;;;;;;4936006;29;20239;-79
2023/02/09 08:14:18;;;;;;;74.83;43.80;;;0.60;99.90;;;;;;4952924;29;20024;-79
2023/02/09 08:16:44;;;;;;;67.97;44.97;;;0.70;99.90;;;;;;4952380;28;20042;-79
2023/02/09 08:19:13;;;;;;;82.80;54.00;;;0.50;99.90;;;;;;4951935;29;20481;-81
2023/02/09 08:21:40;;;;;;;77.40;47.90;;;0.30;99.90;;;;;;4966774;28;20042;-81
2023/02/09 08:24:06;;;;;;;80.77;50.17;;;0.30;99.90;;;;;;4943215;29;20027;-82
2023/02/09 08:26:33;;;;;;;78.80;50.73;;;0.30;99.90;;;;;;4952839;28;20043;-80
2023/02/09 08:28:59;;;;;;;81.20;51.40;;;0.30;99.90;;;;;;4951485;28;20027;-84
2023/02/09 08:31:25;;;;;;;87.00;52.87;;;0.30;99.90;;;;;;4940246;28;20035;-81
2023/02/09 08:33:51;;;;;;;75.87;47.33;;;0.40;99.90;;;;;;4951426;29;20196;-83
2023/02/09 08:36:18;;;;;;;70.60;48.10;;;0.50;99.90;;;;;;4949631;29;20054;-86
2023/02/09 08:38:44;;;;;;;74.77;47.80;;;0.60;99.90;;;;;;4923613;29;20058;-85
2023/02/09 08:41:12;;;;;;;76.53;48.90;;;0.80;99.90;;;;;;4939771;29;20051;-84
2023/02/09 08:43:38;;;;;;;75.90;47.33;;;1.00;99.90;;;;;;4972231;28;20402;-85
2023/02/09 08:46:06;;;;;;;71.70;46.17;;;1.00;99.90;;;;;;4955923;28;20035;-85
2023/02/09 08:48:33;;;;;;;79.53;48.87;;;1.10;99.90;;;;;;4955654;29;20034;-85
2023/02/09 08:50:59;;;;;;;74.57;49.37;;;1.20;99.90;;;;;;4956225;28;20491;-85
2023/02/09 08:53:25;;;;;;;74.57;49.30;;;1.30;99.90;;;;;;4940210;29;20034;-84
2023/02/09 08:55:52;;;;;;;69.60;50.77;;;1.50;99.90;;;;;;4940362;29;20382;-84
2023/02/09 08:58:18;;;;;;;64.13;44.60;;;1.80;99.90;;;;;;4956953;29;20031;-85
2023/02/09 09:00:44;;;;;;;68.03;45.50;;;2.40;99.90;;;;;;4957134;28;20043;-82
2023/02/09 09:03:10;;;;;;;64.97;42.90;;;2.60;99.90;;;;;;4958334;28;20054;-83
2023/02/09 09:05:36;;;;;;;70.53;46.03;;;2.40;99.90;;;;;;4955544;28;20027;-84
2023/02/09 09:08:02;;;;;;;78.73;49.60;;;2.20;99.90;;;;;;4960601;29;20031;-83
2023/02/09 09:10:29;;;;;;;76.83;54.73;;;2.60;99.90;;;;;;4951566;29;20038;-85
2023/02/09 09:12:55;;;;;;;74.77;55.37;;;2.90;99.90;;;;;;4955554;28;20058;-86
2023/02/09 09:15:21;;;;;;;75.13;48.37;;;3.30;99.90;;;;;;4954196;28;20039;-86
2023/02/09 09:17:47;;;;;;;74.47;49.23;;;3.70;99.90;;;;;;4955681;29;20038;-88
2023/02/09 09:20:13;;;;;;;68.50;44.97;;;4.20;99.90;;;;;;4941792;28;20031;-85
2023/02/09 09:22:39;;;;;;;66.63;44.07;;;4.50;99.90;;;;;;4946702;28;20062;-84
2023/02/09 09:25:06;;;;;;;64.60;44.07;;;4.80;99.90;;;;;;4924778;29;20039;-84
2023/02/09 09:27:33;;;;;;;59.70;43.07;;;5.10;99.90;;;;;;4959459;28;20035;-84
2023/02/09 09:30:00;;;;;;;62.10;45.13;;;5.50;99.90;;;;;;4954709;28;20031;-84
2023/02/09 09:32:26;;;;;;;62.27;43.53;;;5.70;99.90;;;;;;4934586;28;20043;-84
2023/02/09 09:34:57;;;;;;;64.27;44.77;;;5.90;99.90;;;;;;4937614;29;20476;-87
2023/02/09 09:37:23;;;;;;;66.63;45.60;;;6.10;99.90;;;;;;4939407;29;20027;-83
2023/02/09 09:39:49;;;;;;;72.77;46.67;;;6.20;99.90;;;;;;4939329;29;20031;-82
2023/02/09 09:42:31;;;;;;;58.67;45.40;;;6.40;99.90;;;;;;4938497;29;20047;-84
2023/02/09 09:44:57;;;;;;;64.03;45.45;;;6.60;99.90;;;;;;4939019;29;20035;-85
2023/02/09 09:47:32;;;;;;;61.90;46.10;;;6.70;99.90;;;;;;4959975;28;20050;-84
2023/02/09 09:49:58;;;;;;;108.93;67.60;;;6.90;99.90;;;;;;4936362;29;20035;-86
2023/02/09 09:52:32;;;;;;;69.28;50.08;;;6.70;99.90;;;;;;4937374;29;20050;-85
2023/02/09 09:55:00;;;;;;;71.05;48.17;;;6.70;99.90;;;;;;4937864;29;20583;-85
2023/02/09 09:57:27;;;;;;;65.55;47.22;;;7.00;99.90;;;;;;4920622;29;20047;-86
2023/02/09 09:59:54;;;;;;;66.13;46.03;;;7.20;99.90;;;;;;4938782;29;20043;-86
2023/02/09 10:02:33;;;;;;;64.38;46.88;;;6.70;99.90;;;;;;4939469;28;20497;-85
2023/02/09 10:05:18;;;;;;;56.45;40.58;;;6.70;99.90;;;;;;4949597;28;20039;-86
2023/02/09 10:07:49;;;;;;;69.05;45.13;;;6.00;99.90;;;;;;4956727;28;20031;-79
2023/02/09 10:10:20;;;;;;;64.18;45.95;;;5.40;99.90;;;;;;4958153;28;20034;-83
2023/02/09 10:12:47;;;;;;;;;;;5.00;99.90;;;;;;4958095;28;20030;-84
2023/02/09 10:15:29;;;;;;;63.13;46.27;;;5.20;99.90;;;;;;4940104;28;19914;-84
2023/02/09 10:17:56;;;;;;;62.77;45.10;;;5.50;99.90;;;;;;4953682;28;20460;-83
2023/02/09 10:20:45;;;;;;;64.03;45.83;;;5.70;99.90;;;;;;4937388;29;20051;-83
2023/02/09 10:23:21;;;;;;;59.97;45.67;;;6.20;99.90;;;;;;4949688;28;20485;-92
2023/02/09 10:26:08;;;;;;;67.85;47.72;;;6.50;99.90;;;;;;4955577;29;20046;-87
2023/02/09 10:28:42;;;;;;;65.43;46.97;;;6.50;99.90;;;;;;4955357;29;20049;-91
2023/02/09 10:31:22;;;;;;;67.32;45.35;;;6.60;99.90;;;;;;4945612;28;20062;-89
2023/02/09 10:34:12;;;;;;;61.78;46.20;;;6.70;99.90;;;;;;4947076;28;20035;-89
2023/02/09 10:36:52;;;;;;;66.70;47.80;;;6.80;99.90;;;;;;4946291;29;20047;-89
2023/02/09 10:39:23;;;;;;;61.88;46.47;;;7.10;99.90;;;;;;4947880;29;20505;-88
2023/02/09 10:41:51;;;;;;;62.05;44.45;;;7.20;99.90;;;;;;4917636;29;20059;-88
2023/02/09 10:44:23;;;;;;;58.42;47.15;;;7.50;99.90;;;;;;4933628;29;20043;-90
2023/02/09 10:46:49;;;;;;;63.38;45.55;;;7.50;99.90;;;;;;4948561;28;20035;-92
2023/02/09 10:49:34;;;;;;;63.17;47.22;;;7.10;99.90;;;;;;4949946;29;20034;-91
2023/02/09 10:52:15;;;;;;;60.88;44.40;;;6.70;99.90;;;;;;4952969;29;20047;-91
2023/02/09 10:54:42;;;;;;;61.92;46.60;;;6.60;99.90;;;;;;4967112;28;20457;-91
2023/02/09 10:57:25;;;;;;;66.18;46.30;;;6.70;99.90;;;;;;4932253;29;20043;-86
2023/02/09 10:59:55;;;;;;;60.65;43.08;;;6.80;99.90;;;;;;4938530;28;20031;-93
2023/02/09 11:02:29;;;;;;;61.38;46.08;;;6.80;99.90;;;;;;4951622;28;20054;-90
2023/02/09 11:04:55;;;;;;;66.82;45.60;;;6.60;99.90;;;;;;4933968;29;20049;-93
2023/02/09 11:07:21;;;;;;;63.17;44.65;;;6.70;99.90;;;;;;4954740;28;20023;-93
2023/02/09 11:09:49;;;;;;;66.47;45.50;;;6.60;99.90;;;;;;4948290;29;20496;-93
2023/02/09 11:12:15;;;;;;;57.05;43.70;;;6.80;99.90;;;;;;4942464;28;20051;-92
2023/02/09 11:14:41;;;;;;;60.15;44.38;;;7.10;99.90;;;;;;4939625;29;20031;-91
2023/02/09 11:17:14;;;;;;;65.00;45.42;;;7.40;99.90;;;;;;4952633;28;20485;-91
2023/02/09 11:19:55;;;;;;;61.80;46.13;;;7.60;99.90;;;;;;4953410;29;20465;-90
2023/02/09 11:22:40;;;;;;;55.33;44.15;;;7.70;99.90;;;;;;4947113;29;20051;-94
2023/02/09 11:25:22;;;;;;;58.33;44.70;;;7.70;99.90;;;;;;4955164;29;20023;-90
2023/02/09 11:28:17;;;;;;;60.08;45.40;;;7.80;99.90;;;;;;4938335;29;20051;-93
2023/02/09 11:31:11;;;;;;;56.05;42.50;;;8.00;99.90;;;;;;4955326;28;20042;-93
2023/02/09 11:33:59;;;;;;;57.35;43.15;;;8.20;99.90;;;;;;4954249;29;20597;-89
2023/02/09 11:36:44;;;;;;;53.40;41.60;;;8.40;99.90;;;;;;4939527;29;20027;-88
2023/02/09 11:39:17;;;;;;;53.03;41.83;;;8.70;99.90;;;;;;4964515;28;20028;-87
2023/02/09 11:44:55;;;;;;;71.15;50.42;;;9.20;99.90;;;;;;4939479;29;20034;-88
2023/02/09 11:47:57;;;;;;;86.47;55.63;;;9.50;99.90;;;;;;4934864;29;20035;-88
2023/02/09 11:50:30;;;;;;;80.65;55.17;;;10.00;99.90;;;;;;4894138;29;20495;-87
2023/02/09 11:52:59;;;;;;;70.35;52.70;;;10.30;99.90;;;;;;4877975;29;20064;-87
2023/02/09 11:55:30;;;;;;;62.03;47.83;;;10.40;99.90;;;;;;4862816;29;20079;-84
2023/02/09 11:58:44;;;;;;;65.95;49.88;;;10.40;99.90;;;;;;4881374;29;20036;-87
2023/02/09 12:01:24;;;;;;;63.28;48.65;;;10.60;99.90;;;;;;4816839;29;20509;-91
2023/02/09 12:04:00;;;;;;;56.33;45.90;;;10.90;99.90;;;;;;4820621;29;20047;-91
2023/02/09 12:06:26;;;;;;;56.85;44.75;;;11.00;99.90;;;;;;4775490;29;20388;-90
2023/02/09 12:09:01;;;;;;;52.20;43.83;;;10.80;99.90;;;;;;4819846;29;20035;-91
2023/02/09 12:11:41;;;;;;;52.97;44.28;;;10.60;99.90;;;;;;4818972;29;20041;-90
2023/02/09 12:14:27;;;;;;;58.10;46.88;;;11.00;99.90;;;;;;4803098;29;20050;-85
2023/02/09 12:17:37;;;;;;;55.38;44.45;;;11.00;99.90;;;;;;4818102;29;20563;-85
2023/02/09 12:20:03;;;;;;;49.00;41.70;;;10.70;99.90;;;;;;4822171;29;20412;-85
2023/02/09 12:22:32;;;;;;;47.70;40.95;;;10.20;99.90;;;;;;4804881;29;20058;-85
2023/02/09 12:25:16;;;;;;;45.30;39.13;;;10.00;99.90;;;;;;4806483;29;20042;-84
2023/02/09 12:28:02;;;;;;;44.53;38.00;;;9.70;99.90;;;;;;4873337;29;20044;-85
2023/02/09 12:30:40;;;;;;;48.70;40.85;;;10.00;99.90;;;;;;4866843;29;20036;-85
2023/02/09 12:33:24;;;;;;;54.78;41.90;;;9.90;99.90;;;;;;4897859;29;20048;-85
2023/02/09 12:36:05;;;;;;;50.08;42.80;;;9.90;99.90;;;;;;4897806;29;20025;-86
2023/02/09 12:38:49;;;;;;;50.05;41.53;;;9.80;99.90;;;;;;4954817;29;20404;-86
2023/02/09 12:41:28;;;;;;;49.65;42.38;;;10.10;99.90;;;;;;4955094;29;20042;-85
2023/02/09 12:44:09;;;;;;;51.35;42.50;;;10.30;99.90;;;;;;4954609;29;20054;-86
2023/02/09 12:46:46;;;;;;;;;;;10.20;99.90;;;;;;4955086;28;20110;-84
2023/02/09 12:49:12;;;;;;;45.35;39.00;;;9.80;99.90;;;;;;4955057;29;19918;-85
2023/02/09 12:51:38;;;;;;;48.78;40.83;;;9.50;99.90;;;;;;4956244;29;20043;-86
2023/02/09 12:54:32;;;;;;;50.95;40.10;;;9.80;99.90;;;;;;4956822;28;20035;-88
2023/02/09 12:57:25;;;;;;;48.95;40.88;;;9.70;99.90;;;;;;4969451;28;20426;-86
2023/02/09 13:00:02;;;;;;;49.67;41.60;;;9.80;99.90;;;;;;4933479;29;20043;-86
2023/02/09 13:02:34;;;;;;;49.90;42.28;;;10.30;99.90;;;;;;4931819;29;20386;-86